<?xml version="1.0" encoding="UTF-8" standalone="no" ?>
<gpx xmlns="http://www.topografix.com/GPX/1/1" xmlns:xsi="http://www.w3.org/2001/XMLSchema-instance" xsi:schemaLocation="http://www.topografix.com/GPX/1/1 http://www.topografix.com/GPX/1/1/gpx.xsd" version="1.1" creator="VisuGPX - https://www.visugpx.com">
  <metadata>
    <name>Flassan : Combe de Canaud - Perrache - Font d'Anjou - Chapelle Saint-Jean - Combe de Ripert</name>
    <desc><![CDATA[Randonnée très caillouteuse]]></desc>
  </metadata>
  <wpt lat="44.09977" lon="5.24191">
    <ele>441</ele>
    <name><![CDATA[Point de passage 1]]></name>
  </wpt>
  <wpt lat="44.09961" lon="5.24186">
    <ele>440</ele>
    <name><![CDATA[Point de passage 2]]></name>
  </wpt>
  <trk>
    <name><![CDATA[La Combe de Canaud depuis Flassan]]></name>
    <extensions>
      <line xmlns="http://www.topografix.com/GPX/gpx_style/0/2">
        <color>0000FF</color>
        <width>4</width>
      </line>
    </extensions>
    <trkseg>
      <trkpt lat="44.09977" lon="5.24191">
        <ele>441</ele>
        <time>2026-07-10T16:04:09.000Z</time>
      </trkpt>
      <trkpt lat="44.09996" lon="5.24196">
        <ele>442</ele>
        <time>2026-07-10T16:04:42.000Z</time>
      </trkpt>
      <trkpt lat="44.10012" lon="5.2421">
        <ele>443</ele>
        <time>2026-07-10T16:05:14.000Z</time>
      </trkpt>
      <trkpt lat="44.10014" lon="5.24227">
        <ele>444</ele>
        <time>2026-07-10T16:05:38.000Z</time>
      </trkpt>
      <trkpt lat="44.10012" lon="5.24248">
        <ele>445</ele>
        <time>2026-07-10T16:06:05.000Z</time>
      </trkpt>
      <trkpt lat="44.10062" lon="5.24287">
        <ele>449</ele>
        <time>2026-07-10T16:07:53.000Z</time>
      </trkpt>
      <trkpt lat="44.10121" lon="5.24324">
        <ele>453</ele>
        <time>2026-07-10T16:09:48.000Z</time>
      </trkpt>
      <trkpt lat="44.10183" lon="5.24345">
        <ele>459</ele>
        <time>2026-07-10T16:12:02.000Z</time>
      </trkpt>
      <trkpt lat="44.10297" lon="5.24414">
        <ele>469</ele>
        <time>2026-07-10T16:16:08.000Z</time>
      </trkpt>
      <trkpt lat="44.10372" lon="5.24489">
        <ele>479</ele>
        <time>2026-07-10T16:19:36.000Z</time>
      </trkpt>
      <trkpt lat="44.10372" lon="5.24488">
        <ele>479</ele>
        <time>2026-07-10T16:19:36.000Z</time>
      </trkpt>
      <trkpt lat="44.104" lon="5.2454">
        <ele>483</ele>
        <time>2026-07-10T16:21:10.000Z</time>
      </trkpt>
      <trkpt lat="44.10414" lon="5.24592">
        <ele>485</ele>
        <time>2026-07-10T16:22:16.000Z</time>
      </trkpt>
      <trkpt lat="44.10435" lon="5.24631">
        <ele>488</ele>
        <time>2026-07-10T16:23:27.000Z</time>
      </trkpt>
      <trkpt lat="44.10439" lon="5.24642">
        <ele>489</ele>
        <time>2026-07-10T16:23:48.000Z</time>
      </trkpt>
      <trkpt lat="44.10443" lon="5.24691">
        <ele>491</ele>
        <time>2026-07-10T16:24:49.000Z</time>
      </trkpt>
      <trkpt lat="44.10459" lon="5.24707">
        <ele>493</ele>
        <time>2026-07-10T16:25:32.000Z</time>
      </trkpt>
      <trkpt lat="44.10463" lon="5.24707">
        <ele>494</ele>
        <time>2026-07-10T16:25:47.000Z</time>
      </trkpt>
      <trkpt lat="44.10466" lon="5.24742">
        <ele>494</ele>
        <time>2026-07-10T16:26:16.000Z</time>
      </trkpt>
      <trkpt lat="44.1047" lon="5.24753">
        <ele>495</ele>
        <time>2026-07-10T16:26:36.000Z</time>
      </trkpt>
      <trkpt lat="44.10474" lon="5.24763">
        <ele>496</ele>
        <time>2026-07-10T16:26:56.000Z</time>
      </trkpt>
      <trkpt lat="44.10495" lon="5.24783">
        <ele>498</ele>
        <time>2026-07-10T16:27:45.000Z</time>
      </trkpt>
      <trkpt lat="44.10507" lon="5.24821">
        <ele>502</ele>
        <time>2026-07-10T16:29:00.000Z</time>
      </trkpt>
      <trkpt lat="44.10508" lon="5.24859">
        <ele>502</ele>
        <time>2026-07-10T16:29:31.000Z</time>
      </trkpt>
      <trkpt lat="44.10521" lon="5.24892">
        <ele>505</ele>
        <time>2026-07-10T16:30:32.000Z</time>
      </trkpt>
      <trkpt lat="44.1053" lon="5.24945">
        <ele>508</ele>
        <time>2026-07-10T16:31:48.000Z</time>
      </trkpt>
      <trkpt lat="44.10549" lon="5.24962">
        <ele>509</ele>
        <time>2026-07-10T16:32:24.000Z</time>
      </trkpt>
      <trkpt lat="44.10559" lon="5.24981">
        <ele>510</ele>
        <time>2026-07-10T16:32:54.000Z</time>
      </trkpt>
      <trkpt lat="44.10569" lon="5.25037">
        <ele>514</ele>
        <time>2026-07-10T16:34:22.000Z</time>
      </trkpt>
      <trkpt lat="44.10573" lon="5.25102">
        <ele>518</ele>
        <time>2026-07-10T16:35:57.000Z</time>
      </trkpt>
      <trkpt lat="44.10593" lon="5.25151">
        <ele>523</ele>
        <time>2026-07-10T16:37:35.000Z</time>
      </trkpt>
      <trkpt lat="44.10619" lon="5.252">
        <ele>526</ele>
        <time>2026-07-10T16:38:55.000Z</time>
      </trkpt>
      <trkpt lat="44.10649" lon="5.25328">
        <ele>536</ele>
        <time>2026-07-10T16:42:29.000Z</time>
      </trkpt>
      <trkpt lat="44.10652" lon="5.25361">
        <ele>537</ele>
        <time>2026-07-10T16:43:06.000Z</time>
      </trkpt>
      <trkpt lat="44.10668" lon="5.25401">
        <ele>541</ele>
        <time>2026-07-10T16:44:25.000Z</time>
      </trkpt>
      <trkpt lat="44.10696" lon="5.25498">
        <ele>548</ele>
        <time>2026-07-10T16:47:03.000Z</time>
      </trkpt>
      <trkpt lat="44.10722" lon="5.25535">
        <ele>551</ele>
        <time>2026-07-10T16:48:16.000Z</time>
      </trkpt>
      <trkpt lat="44.10724" lon="5.25556">
        <ele>552</ele>
        <time>2026-07-10T16:48:44.000Z</time>
      </trkpt>
      <trkpt lat="44.10719" lon="5.25577">
        <ele>554</ele>
        <time>2026-07-10T16:49:23.000Z</time>
      </trkpt>
      <trkpt lat="44.10719" lon="5.25613">
        <ele>556</ele>
        <time>2026-07-10T16:50:13.000Z</time>
      </trkpt>
      <trkpt lat="44.10729" lon="5.25628">
        <ele>557</ele>
        <time>2026-07-10T16:50:40.000Z</time>
      </trkpt>
      <trkpt lat="44.10729" lon="5.25628">
        <ele>557</ele>
        <time>2026-07-10T16:04:09.000Z</time>
      </trkpt>
      <trkpt lat="44.10729" lon="5.25628">
        <ele>557</ele>
        <time>2026-07-10T16:04:09.000Z</time>
      </trkpt>
      <trkpt lat="44.10804" lon="5.25743">
        <ele>565</ele>
        <time>2026-07-10T16:07:39.000Z</time>
      </trkpt>
      <trkpt lat="44.1082" lon="5.25775">
        <ele>568</ele>
        <time>2026-07-10T16:08:42.000Z</time>
      </trkpt>
      <trkpt lat="44.10836" lon="5.25791">
        <ele>570</ele>
        <time>2026-07-10T16:09:25.000Z</time>
      </trkpt>
      <trkpt lat="44.10862" lon="5.25836">
        <ele>574</ele>
        <time>2026-07-10T16:10:54.000Z</time>
      </trkpt>
      <trkpt lat="44.10865" lon="5.25853">
        <ele>575</ele>
        <time>2026-07-10T16:11:19.000Z</time>
      </trkpt>
      <trkpt lat="44.10872" lon="5.25866">
        <ele>576</ele>
        <time>2026-07-10T16:11:43.000Z</time>
      </trkpt>
      <trkpt lat="44.10879" lon="5.25871">
        <ele>577</ele>
        <time>2026-07-10T16:12:02.000Z</time>
      </trkpt>
      <trkpt lat="44.10888" lon="5.25917">
        <ele>578</ele>
        <time>2026-07-10T16:12:52.000Z</time>
      </trkpt>
      <trkpt lat="44.10905" lon="5.25937">
        <ele>581</ele>
        <time>2026-07-10T16:13:48.000Z</time>
      </trkpt>
      <trkpt lat="44.10911" lon="5.2596">
        <ele>583</ele>
        <time>2026-07-10T16:14:28.000Z</time>
      </trkpt>
      <trkpt lat="44.10911" lon="5.2596">
        <ele>582</ele>
        <time>2026-07-10T16:14:28.000Z</time>
      </trkpt>
      <trkpt lat="44.10915" lon="5.25992">
        <ele>584</ele>
        <time>2026-07-10T16:15:16.000Z</time>
      </trkpt>
      <trkpt lat="44.10931" lon="5.26013">
        <ele>586</ele>
        <time>2026-07-10T16:16:01.000Z</time>
      </trkpt>
      <trkpt lat="44.10961" lon="5.26075">
        <ele>592</ele>
        <time>2026-07-10T16:18:05.000Z</time>
      </trkpt>
      <trkpt lat="44.11009" lon="5.26112">
        <ele>598</ele>
        <time>2026-07-10T16:20:09.000Z</time>
      </trkpt>
      <trkpt lat="44.11022" lon="5.26133">
        <ele>599</ele>
        <time>2026-07-10T16:20:42.000Z</time>
      </trkpt>
      <trkpt lat="44.11044" lon="5.26151">
        <ele>603</ele>
        <time>2026-07-10T16:21:52.000Z</time>
      </trkpt>
      <trkpt lat="44.11056" lon="5.26167">
        <ele>603</ele>
        <time>2026-07-10T16:22:11.000Z</time>
      </trkpt>
      <trkpt lat="44.11093" lon="5.26182">
        <ele>609</ele>
        <time>2026-07-10T16:23:57.000Z</time>
      </trkpt>
      <trkpt lat="44.11107" lon="5.26197">
        <ele>609</ele>
        <time>2026-07-10T16:24:17.000Z</time>
      </trkpt>
      <trkpt lat="44.11115" lon="5.26226">
        <ele>611</ele>
        <time>2026-07-10T16:25:03.000Z</time>
      </trkpt>
      <trkpt lat="44.11128" lon="5.26252">
        <ele>612</ele>
        <time>2026-07-10T16:25:39.000Z</time>
      </trkpt>
      <trkpt lat="44.11136" lon="5.26262">
        <ele>613</ele>
        <time>2026-07-10T16:26:01.000Z</time>
      </trkpt>
      <trkpt lat="44.11141" lon="5.26291">
        <ele>616</ele>
        <time>2026-07-10T16:26:56.000Z</time>
      </trkpt>
      <trkpt lat="44.11153" lon="5.26331">
        <ele>619</ele>
        <time>2026-07-10T16:28:03.000Z</time>
      </trkpt>
      <trkpt lat="44.11167" lon="5.2635">
        <ele>621</ele>
        <time>2026-07-10T16:28:46.000Z</time>
      </trkpt>
      <trkpt lat="44.11167" lon="5.2635">
        <ele>621</ele>
        <time>2026-07-10T16:28:46.000Z</time>
      </trkpt>
      <trkpt lat="44.11227" lon="5.26384">
        <ele>627</ele>
        <time>2026-07-10T16:31:02.000Z</time>
      </trkpt>
      <trkpt lat="44.11247" lon="5.26382">
        <ele>632</ele>
        <time>2026-07-10T16:32:16.000Z</time>
      </trkpt>
      <trkpt lat="44.11299" lon="5.26403">
        <ele>636</ele>
        <time>2026-07-10T16:33:58.000Z</time>
      </trkpt>
      <trkpt lat="44.11309" lon="5.26411">
        <ele>639</ele>
        <time>2026-07-10T16:34:43.000Z</time>
      </trkpt>
      <trkpt lat="44.11328" lon="5.26416">
        <ele>642</ele>
        <time>2026-07-10T16:35:36.000Z</time>
      </trkpt>
      <trkpt lat="44.11335" lon="5.26437">
        <ele>640</ele>
        <time>2026-07-10T16:35:55.000Z</time>
      </trkpt>
      <trkpt lat="44.11347" lon="5.26444">
        <ele>642</ele>
        <time>2026-07-10T16:36:30.000Z</time>
      </trkpt>
      <trkpt lat="44.11363" lon="5.26449">
        <ele>643</ele>
        <time>2026-07-10T16:37:00.000Z</time>
      </trkpt>
      <trkpt lat="44.11406" lon="5.26439">
        <ele>650</ele>
        <time>2026-07-10T16:39:02.000Z</time>
      </trkpt>
      <trkpt lat="44.11415" lon="5.26441">
        <ele>651</ele>
        <time>2026-07-10T16:39:22.000Z</time>
      </trkpt>
      <trkpt lat="44.11429" lon="5.26488">
        <ele>656</ele>
        <time>2026-07-10T16:40:55.000Z</time>
      </trkpt>
      <trkpt lat="44.11425" lon="5.26503">
        <ele>656</ele>
        <time>2026-07-10T16:41:08.000Z</time>
      </trkpt>
      <trkpt lat="44.11427" lon="5.26517">
        <ele>657</ele>
        <time>2026-07-10T16:41:30.000Z</time>
      </trkpt>
      <trkpt lat="44.11425" lon="5.26537">
        <ele>657</ele>
        <time>2026-07-10T16:41:47.000Z</time>
      </trkpt>
      <trkpt lat="44.11431" lon="5.26562">
        <ele>662</ele>
        <time>2026-07-10T16:43:01.000Z</time>
      </trkpt>
      <trkpt lat="44.11427" lon="5.26582">
        <ele>664</ele>
        <time>2026-07-10T16:43:39.000Z</time>
      </trkpt>
      <trkpt lat="44.11406" lon="5.26605">
        <ele>663</ele>
        <time>2026-07-10T16:44:09.000Z</time>
      </trkpt>
      <trkpt lat="44.11403" lon="5.26617">
        <ele>665</ele>
        <time>2026-07-10T16:44:40.000Z</time>
      </trkpt>
      <trkpt lat="44.11404" lon="5.26635">
        <ele>668</ele>
        <time>2026-07-10T16:45:26.000Z</time>
      </trkpt>
      <trkpt lat="44.11413" lon="5.26663">
        <ele>671</ele>
        <time>2026-07-10T16:46:22.000Z</time>
      </trkpt>
      <trkpt lat="44.11416" lon="5.26693">
        <ele>671</ele>
        <time>2026-07-10T16:46:46.000Z</time>
      </trkpt>
      <trkpt lat="44.11424" lon="5.26708">
        <ele>672</ele>
        <time>2026-07-10T16:47:12.000Z</time>
      </trkpt>
      <trkpt lat="44.11426" lon="5.26747">
        <ele>677</ele>
        <time>2026-07-10T16:48:35.000Z</time>
      </trkpt>
      <trkpt lat="44.11429" lon="5.26785">
        <ele>677</ele>
        <time>2026-07-10T16:49:07.000Z</time>
      </trkpt>
      <trkpt lat="44.11421" lon="5.26808">
        <ele>678</ele>
        <time>2026-07-10T16:49:38.000Z</time>
      </trkpt>
      <trkpt lat="44.11414" lon="5.26818">
        <ele>679</ele>
        <time>2026-07-10T16:50:00.000Z</time>
      </trkpt>
      <trkpt lat="44.11392" lon="5.26837">
        <ele>682</ele>
        <time>2026-07-10T16:51:01.000Z</time>
      </trkpt>
      <trkpt lat="44.11392" lon="5.26837">
        <ele>682</ele>
        <time>2026-07-10T16:51:01.000Z</time>
      </trkpt>
      <trkpt lat="44.11385" lon="5.26841">
        <ele>682</ele>
        <time>2026-07-10T16:51:09.000Z</time>
      </trkpt>
      <trkpt lat="44.11363" lon="5.2688">
        <ele>689</ele>
        <time>2026-07-10T16:53:02.000Z</time>
      </trkpt>
      <trkpt lat="44.11367" lon="5.26908">
        <ele>690</ele>
        <time>2026-07-10T16:53:36.000Z</time>
      </trkpt>
      <trkpt lat="44.11374" lon="5.2693">
        <ele>696</ele>
        <time>2026-07-10T16:54:57.000Z</time>
      </trkpt>
      <trkpt lat="44.11369" lon="5.26952">
        <ele>694</ele>
        <time>2026-07-10T16:55:16.000Z</time>
      </trkpt>
      <trkpt lat="44.11368" lon="5.27012">
        <ele>700</ele>
        <time>2026-07-10T16:57:07.000Z</time>
      </trkpt>
      <trkpt lat="44.11356" lon="5.27058">
        <ele>704</ele>
        <time>2026-07-10T16:58:28.000Z</time>
      </trkpt>
      <trkpt lat="44.11341" lon="5.27087">
        <ele>706</ele>
        <time>2026-07-10T16:59:18.000Z</time>
      </trkpt>
      <trkpt lat="44.1133" lon="5.27098">
        <ele>709</ele>
        <time>2026-07-10T17:00:04.000Z</time>
      </trkpt>
      <trkpt lat="44.11318" lon="5.27103">
        <ele>710</ele>
        <time>2026-07-10T17:00:28.000Z</time>
      </trkpt>
      <trkpt lat="44.11291" lon="5.27105">
        <ele>715</ele>
        <time>2026-07-10T17:01:51.000Z</time>
      </trkpt>
      <trkpt lat="44.11269" lon="5.27128">
        <ele>717</ele>
        <time>2026-07-10T17:02:44.000Z</time>
      </trkpt>
      <trkpt lat="44.11265" lon="5.27145">
        <ele>718</ele>
        <time>2026-07-10T17:03:09.000Z</time>
      </trkpt>
      <trkpt lat="44.11278" lon="5.27197">
        <ele>721</ele>
        <time>2026-07-10T17:04:25.000Z</time>
      </trkpt>
      <trkpt lat="44.1128" lon="5.27227">
        <ele>724</ele>
        <time>2026-07-10T17:05:20.000Z</time>
      </trkpt>
      <trkpt lat="44.11272" lon="5.27268">
        <ele>725</ele>
        <time>2026-07-10T17:06:06.000Z</time>
      </trkpt>
      <trkpt lat="44.11253" lon="5.27301">
        <ele>728</ele>
        <time>2026-07-10T17:07:11.000Z</time>
      </trkpt>
      <trkpt lat="44.11246" lon="5.27332">
        <ele>730</ele>
        <time>2026-07-10T17:07:58.000Z</time>
      </trkpt>
      <trkpt lat="44.11234" lon="5.27356">
        <ele>733</ele>
        <time>2026-07-10T17:08:53.000Z</time>
      </trkpt>
      <trkpt lat="44.11231" lon="5.27387">
        <ele>736</ele>
        <time>2026-07-10T17:09:49.000Z</time>
      </trkpt>
      <trkpt lat="44.11243" lon="5.27431">
        <ele>743</ele>
        <time>2026-07-10T17:11:40.000Z</time>
      </trkpt>
      <trkpt lat="44.11248" lon="5.27488">
        <ele>746</ele>
        <time>2026-07-10T17:12:59.000Z</time>
      </trkpt>
      <trkpt lat="44.11254" lon="5.27516">
        <ele>751</ele>
        <time>2026-07-10T17:14:14.000Z</time>
      </trkpt>
      <trkpt lat="44.11264" lon="5.27528">
        <ele>759</ele>
        <time>2026-07-10T17:15:51.000Z</time>
      </trkpt>
      <trkpt lat="44.11282" lon="5.27432">
        <ele>761</ele>
        <time>2026-07-10T17:17:33.000Z</time>
      </trkpt>
      <trkpt lat="44.11287" lon="5.27425">
        <ele>761</ele>
        <time>2026-07-10T17:17:41.000Z</time>
      </trkpt>
      <trkpt lat="44.11299" lon="5.2742">
        <ele>759</ele>
        <time>2026-07-10T17:17:56.000Z</time>
      </trkpt>
      <trkpt lat="44.11319" lon="5.27432">
        <ele>760</ele>
        <time>2026-07-10T17:18:31.000Z</time>
      </trkpt>
      <trkpt lat="44.11351" lon="5.27443">
        <ele>762</ele>
        <time>2026-07-10T17:19:29.000Z</time>
      </trkpt>
      <trkpt lat="44.11356" lon="5.27435">
        <ele>762</ele>
        <time>2026-07-10T17:19:38.000Z</time>
      </trkpt>
      <trkpt lat="44.11356" lon="5.27415">
        <ele>763</ele>
        <time>2026-07-10T17:20:04.000Z</time>
      </trkpt>
      <trkpt lat="44.11365" lon="5.27432">
        <ele>767</ele>
        <time>2026-07-10T17:21:02.000Z</time>
      </trkpt>
      <trkpt lat="44.11386" lon="5.27496">
        <ele>772</ele>
        <time>2026-07-10T17:22:51.000Z</time>
      </trkpt>
      <trkpt lat="44.11386" lon="5.27496">
        <ele>772</ele>
        <time>2026-07-10T17:22:51.000Z</time>
      </trkpt>
      <trkpt lat="44.11392" lon="5.27516">
        <ele>773</ele>
        <time>2026-07-10T17:23:19.000Z</time>
      </trkpt>
      <trkpt lat="44.11412" lon="5.27553">
        <ele>779</ele>
        <time>2026-07-10T17:24:59.000Z</time>
      </trkpt>
      <trkpt lat="44.11424" lon="5.2756">
        <ele>780</ele>
        <time>2026-07-10T17:25:24.000Z</time>
      </trkpt>
      <trkpt lat="44.11458" lon="5.27629">
        <ele>788</ele>
        <time>2026-07-10T17:27:55.000Z</time>
      </trkpt>
      <trkpt lat="44.11516" lon="5.27692">
        <ele>801</ele>
        <time>2026-07-10T17:31:33.000Z</time>
      </trkpt>
      <trkpt lat="44.11529" lon="5.27716">
        <ele>802</ele>
        <time>2026-07-10T17:32:08.000Z</time>
      </trkpt>
      <trkpt lat="44.1156" lon="5.2776">
        <ele>808</ele>
        <time>2026-07-10T17:34:00.000Z</time>
      </trkpt>
      <trkpt lat="44.11576" lon="5.27806">
        <ele>813</ele>
        <time>2026-07-10T17:35:33.000Z</time>
      </trkpt>
      <trkpt lat="44.11592" lon="5.27829">
        <ele>818</ele>
        <time>2026-07-10T17:36:51.000Z</time>
      </trkpt>
      <trkpt lat="44.11587" lon="5.27895">
        <ele>822</ele>
        <time>2026-07-10T17:38:27.000Z</time>
      </trkpt>
      <trkpt lat="44.11601" lon="5.27953">
        <ele>829</ele>
        <time>2026-07-10T17:40:29.000Z</time>
      </trkpt>
      <trkpt lat="44.11603" lon="5.28017">
        <ele>834</ele>
        <time>2026-07-10T17:42:12.000Z</time>
      </trkpt>
      <trkpt lat="44.11617" lon="5.28063">
        <ele>839</ele>
        <time>2026-07-10T17:43:45.000Z</time>
      </trkpt>
      <trkpt lat="44.11627" lon="5.28079">
        <ele>841</ele>
        <time>2026-07-10T17:44:23.000Z</time>
      </trkpt>
      <trkpt lat="44.11642" lon="5.28097">
        <ele>843</ele>
        <time>2026-07-10T17:45:06.000Z</time>
      </trkpt>
      <trkpt lat="44.1166" lon="5.28141">
        <ele>847</ele>
        <time>2026-07-10T17:46:29.000Z</time>
      </trkpt>
      <trkpt lat="44.11707" lon="5.28206">
        <ele>856</ele>
        <time>2026-07-10T17:49:17.000Z</time>
      </trkpt>
      <trkpt lat="44.11729" lon="5.28254">
        <ele>860</ele>
        <time>2026-07-10T17:50:45.000Z</time>
      </trkpt>
      <trkpt lat="44.11737" lon="5.28318">
        <ele>864</ele>
        <time>2026-07-10T17:52:20.000Z</time>
      </trkpt>
      <trkpt lat="44.11742" lon="5.28331">
        <ele>866</ele>
        <time>2026-07-10T17:52:53.000Z</time>
      </trkpt>
      <trkpt lat="44.1179" lon="5.28422">
        <ele>876</ele>
        <time>2026-07-10T17:56:08.000Z</time>
      </trkpt>
      <trkpt lat="44.11794" lon="5.28447">
        <ele>879</ele>
        <time>2026-07-10T17:57:00.000Z</time>
      </trkpt>
      <trkpt lat="44.11795" lon="5.28491">
        <ele>881</ele>
        <time>2026-07-10T17:57:56.000Z</time>
      </trkpt>
      <trkpt lat="44.11803" lon="5.28515">
        <ele>883</ele>
        <time>2026-07-10T17:58:39.000Z</time>
      </trkpt>
      <trkpt lat="44.11803" lon="5.28515">
        <ele>883</ele>
        <time>2026-07-10T17:58:39.000Z</time>
      </trkpt>
      <trkpt lat="44.11821" lon="5.28531">
        <ele>886</ele>
        <time>2026-07-10T17:59:34.000Z</time>
      </trkpt>
      <trkpt lat="44.11856" lon="5.28547">
        <ele>890</ele>
        <time>2026-07-10T18:00:58.000Z</time>
      </trkpt>
      <trkpt lat="44.11878" lon="5.28576">
        <ele>892</ele>
        <time>2026-07-10T18:01:53.000Z</time>
      </trkpt>
      <trkpt lat="44.1191" lon="5.28579">
        <ele>896</ele>
        <time>2026-07-10T18:03:11.000Z</time>
      </trkpt>
      <trkpt lat="44.11937" lon="5.28599">
        <ele>900</ele>
        <time>2026-07-10T18:04:27.000Z</time>
      </trkpt>
      <trkpt lat="44.11943" lon="5.28619">
        <ele>902</ele>
        <time>2026-07-10T18:05:05.000Z</time>
      </trkpt>
      <trkpt lat="44.1197" lon="5.28671">
        <ele>906</ele>
        <time>2026-07-10T18:06:39.000Z</time>
      </trkpt>
      <trkpt lat="44.12048" lon="5.28771">
        <ele>915</ele>
        <time>2026-07-10T18:10:13.000Z</time>
      </trkpt>
      <trkpt lat="44.12058" lon="5.28779">
        <ele>916</ele>
        <time>2026-07-10T18:10:36.000Z</time>
      </trkpt>
      <trkpt lat="44.1213" lon="5.2883">
        <ele>925</ele>
        <time>2026-07-10T18:13:41.000Z</time>
      </trkpt>
      <trkpt lat="44.12177" lon="5.28854">
        <ele>930</ele>
        <time>2026-07-10T18:15:30.000Z</time>
      </trkpt>
      <trkpt lat="44.12262" lon="5.28875">
        <ele>939</ele>
        <time>2026-07-10T18:18:41.000Z</time>
      </trkpt>
      <trkpt lat="44.12293" lon="5.28889">
        <ele>942</ele>
        <time>2026-07-10T18:19:49.000Z</time>
      </trkpt>
      <trkpt lat="44.12314" lon="5.28906">
        <ele>945</ele>
        <time>2026-07-10T18:20:48.000Z</time>
      </trkpt>
      <trkpt lat="44.12329" lon="5.2893">
        <ele>946</ele>
        <time>2026-07-10T18:21:25.000Z</time>
      </trkpt>
      <trkpt lat="44.12405" lon="5.29097">
        <ele>961</ele>
        <time>2026-07-10T18:26:42.000Z</time>
      </trkpt>
      <trkpt lat="44.12448" lon="5.29166">
        <ele>967</ele>
        <time>2026-07-10T18:28:59.000Z</time>
      </trkpt>
      <trkpt lat="44.12521" lon="5.29237">
        <ele>977</ele>
        <time>2026-07-10T18:32:24.000Z</time>
      </trkpt>
      <trkpt lat="44.12526" lon="5.2925">
        <ele>978</ele>
        <time>2026-07-10T18:32:47.000Z</time>
      </trkpt>
      <trkpt lat="44.12534" lon="5.29312">
        <ele>983</ele>
        <time>2026-07-10T18:34:30.000Z</time>
      </trkpt>
      <trkpt lat="44.12526" lon="5.29357">
        <ele>988</ele>
        <time>2026-07-10T18:35:59.000Z</time>
      </trkpt>
      <trkpt lat="44.12513" lon="5.294">
        <ele>991</ele>
        <time>2026-07-10T18:37:08.000Z</time>
      </trkpt>
      <trkpt lat="44.12514" lon="5.29423">
        <ele>994</ele>
        <time>2026-07-10T18:37:57.000Z</time>
      </trkpt>
      <trkpt lat="44.12502" lon="5.29596">
        <ele>1008</ele>
        <time>2026-07-10T18:42:44.000Z</time>
      </trkpt>
      <trkpt lat="44.12503" lon="5.29634">
        <ele>1011</ele>
        <time>2026-07-10T18:43:46.000Z</time>
      </trkpt>
      <trkpt lat="44.1251" lon="5.29669">
        <ele>1014</ele>
        <time>2026-07-10T18:44:46.000Z</time>
      </trkpt>
      <trkpt lat="44.12525" lon="5.29696">
        <ele>1017</ele>
        <time>2026-07-10T18:45:46.000Z</time>
      </trkpt>
      <trkpt lat="44.12563" lon="5.29745">
        <ele>1023</ele>
        <time>2026-07-10T18:47:47.000Z</time>
      </trkpt>
      <trkpt lat="44.12609" lon="5.29819">
        <ele>1032</ele>
        <time>2026-07-10T18:50:40.000Z</time>
      </trkpt>
      <trkpt lat="44.12672" lon="5.29972">
        <ele>1047</ele>
        <time>2026-07-10T18:55:40.000Z</time>
      </trkpt>
      <trkpt lat="44.12686" lon="5.30052">
        <ele>1053</ele>
        <time>2026-07-10T18:57:49.000Z</time>
      </trkpt>
      <trkpt lat="44.12694" lon="5.30068">
        <ele>1055</ele>
        <time>2026-07-10T18:58:26.000Z</time>
      </trkpt>
      <trkpt lat="44.12715" lon="5.30086">
        <ele>1058</ele>
        <time>2026-07-10T18:59:24.000Z</time>
      </trkpt>
      <trkpt lat="44.12719" lon="5.3011">
        <ele>1060</ele>
        <time>2026-07-10T19:00:05.000Z</time>
      </trkpt>
      <trkpt lat="44.12719" lon="5.30139">
        <ele>1062</ele>
        <time>2026-07-10T19:00:49.000Z</time>
      </trkpt>
      <trkpt lat="44.127" lon="5.30151">
        <ele>1065</ele>
        <time>2026-07-10T19:01:44.000Z</time>
      </trkpt>
      <trkpt lat="44.1267" lon="5.30159">
        <ele>1069</ele>
        <time>2026-07-10T19:03:00.000Z</time>
      </trkpt>
      <trkpt lat="44.12653" lon="5.30185">
        <ele>1073</ele>
        <time>2026-07-10T19:04:10.000Z</time>
      </trkpt>
      <trkpt lat="44.12645" lon="5.30216">
        <ele>1076</ele>
        <time>2026-07-10T19:05:08.000Z</time>
      </trkpt>
      <trkpt lat="44.12641" lon="5.30256">
        <ele>1078</ele>
        <time>2026-07-10T19:06:01.000Z</time>
      </trkpt>
      <trkpt lat="44.12645" lon="5.30266">
        <ele>1079</ele>
        <time>2026-07-10T19:06:21.000Z</time>
      </trkpt>
      <trkpt lat="44.12643" lon="5.30275">
        <ele>1080</ele>
        <time>2026-07-10T19:06:39.000Z</time>
      </trkpt>
      <trkpt lat="44.12643" lon="5.30276">
        <ele>1080</ele>
        <time>2026-07-10T19:06:39.000Z</time>
      </trkpt>
      <trkpt lat="44.12631" lon="5.30295">
        <ele>1080</ele>
        <time>2026-07-10T19:07:00.000Z</time>
      </trkpt>
      <trkpt lat="44.12617" lon="5.30339">
        <ele>1080</ele>
        <time>2026-07-10T19:07:40.000Z</time>
      </trkpt>
      <trkpt lat="44.12592" lon="5.30449">
        <ele>1081</ele>
        <time>2026-07-10T19:09:26.000Z</time>
      </trkpt>
      <trkpt lat="44.12581" lon="5.30537">
        <ele>1085</ele>
        <time>2026-07-10T19:11:20.000Z</time>
      </trkpt>
      <trkpt lat="44.12565" lon="5.30573">
        <ele>1087</ele>
        <time>2026-07-10T19:12:16.000Z</time>
      </trkpt>
      <trkpt lat="44.12561" lon="5.30594">
        <ele>1088</ele>
        <time>2026-07-10T19:12:44.000Z</time>
      </trkpt>
      <trkpt lat="44.12553" lon="5.3061">
        <ele>1089</ele>
        <time>2026-07-10T19:13:10.000Z</time>
      </trkpt>
      <trkpt lat="44.12549" lon="5.30659">
        <ele>1092</ele>
        <time>2026-07-10T19:14:22.000Z</time>
      </trkpt>
      <trkpt lat="44.12526" lon="5.30713">
        <ele>1095</ele>
        <time>2026-07-10T19:15:45.000Z</time>
      </trkpt>
      <trkpt lat="44.12496" lon="5.30813">
        <ele>1097</ele>
        <time>2026-07-10T19:17:35.000Z</time>
      </trkpt>
      <trkpt lat="44.12465" lon="5.30872">
        <ele>1096</ele>
        <time>2026-07-10T19:18:35.000Z</time>
      </trkpt>
      <trkpt lat="44.12456" lon="5.30896">
        <ele>1095</ele>
        <time>2026-07-10T19:18:56.000Z</time>
      </trkpt>
      <trkpt lat="44.12436" lon="5.30931">
        <ele>1093</ele>
        <time>2026-07-10T19:19:33.000Z</time>
      </trkpt>
      <trkpt lat="44.1244" lon="5.30959">
        <ele>1091</ele>
        <time>2026-07-10T19:19:57.000Z</time>
      </trkpt>
      <trkpt lat="44.12464" lon="5.31056">
        <ele>1084</ele>
        <time>2026-07-10T19:21:21.000Z</time>
      </trkpt>
      <trkpt lat="44.12488" lon="5.31152">
        <ele>1071</ele>
        <time>2026-07-10T19:22:45.000Z</time>
      </trkpt>
      <trkpt lat="44.12486" lon="5.31171">
        <ele>1067</ele>
        <time>2026-07-10T19:23:01.000Z</time>
      </trkpt>
      <trkpt lat="44.12488" lon="5.3118">
        <ele>1066</ele>
        <time>2026-07-10T19:23:09.000Z</time>
      </trkpt>
      <trkpt lat="44.12487" lon="5.31214">
        <ele>1061</ele>
        <time>2026-07-10T19:23:37.000Z</time>
      </trkpt>
      <trkpt lat="44.12469" lon="5.3136">
        <ele>1044</ele>
        <time>2026-07-10T19:25:39.000Z</time>
      </trkpt>
      <trkpt lat="44.12475" lon="5.31408">
        <ele>1040</ele>
        <time>2026-07-10T19:26:19.000Z</time>
      </trkpt>
      <trkpt lat="44.12478" lon="5.3142">
        <ele>1037</ele>
        <time>2026-07-10T19:26:30.000Z</time>
      </trkpt>
      <trkpt lat="44.12492" lon="5.31438">
        <ele>1033</ele>
        <time>2026-07-10T19:26:51.000Z</time>
      </trkpt>
      <trkpt lat="44.12566" lon="5.31515">
        <ele>1024</ele>
        <time>2026-07-10T19:28:37.000Z</time>
      </trkpt>
      <trkpt lat="44.12539" lon="5.31513">
        <ele>1023</ele>
        <time>2026-07-10T19:29:08.000Z</time>
      </trkpt>
      <trkpt lat="44.12522" lon="5.31506">
        <ele>1022</ele>
        <time>2026-07-10T19:29:28.000Z</time>
      </trkpt>
      <trkpt lat="44.12493" lon="5.31487">
        <ele>1020</ele>
        <time>2026-07-10T19:30:06.000Z</time>
      </trkpt>
      <trkpt lat="44.1246" lon="5.31472">
        <ele>1016</ele>
        <time>2026-07-10T19:30:45.000Z</time>
      </trkpt>
      <trkpt lat="44.12436" lon="5.31455">
        <ele>1011</ele>
        <time>2026-07-10T19:31:16.000Z</time>
      </trkpt>
      <trkpt lat="44.1239" lon="5.31405">
        <ele>1004</ele>
        <time>2026-07-10T19:32:23.000Z</time>
      </trkpt>
      <trkpt lat="44.12361" lon="5.31343">
        <ele>998</ele>
        <time>2026-07-10T19:33:24.000Z</time>
      </trkpt>
      <trkpt lat="44.12309" lon="5.31253">
        <ele>990</ele>
        <time>2026-07-10T19:34:59.000Z</time>
      </trkpt>
      <trkpt lat="44.12267" lon="5.31219">
        <ele>986</ele>
        <time>2026-07-10T19:35:54.000Z</time>
      </trkpt>
      <trkpt lat="44.12252" lon="5.31185">
        <ele>984</ele>
        <time>2026-07-10T19:36:27.000Z</time>
      </trkpt>
      <trkpt lat="44.12229" lon="5.31151">
        <ele>982</ele>
        <time>2026-07-10T19:37:05.000Z</time>
      </trkpt>
      <trkpt lat="44.12194" lon="5.31122">
        <ele>978</ele>
        <time>2026-07-10T19:37:52.000Z</time>
      </trkpt>
      <trkpt lat="44.12165" lon="5.31093">
        <ele>976</ele>
        <time>2026-07-10T19:38:33.000Z</time>
      </trkpt>
      <trkpt lat="44.12127" lon="5.3103">
        <ele>971</ele>
        <time>2026-07-10T19:39:40.000Z</time>
      </trkpt>
      <trkpt lat="44.12076" lon="5.30987">
        <ele>966</ele>
        <time>2026-07-10T19:40:49.000Z</time>
      </trkpt>
      <trkpt lat="44.1201" lon="5.30919">
        <ele>961</ele>
        <time>2026-07-10T19:42:23.000Z</time>
      </trkpt>
      <trkpt lat="44.11975" lon="5.30902">
        <ele>959</ele>
        <time>2026-07-10T19:43:05.000Z</time>
      </trkpt>
      <trkpt lat="44.11934" lon="5.30872">
        <ele>955</ele>
        <time>2026-07-10T19:43:59.000Z</time>
      </trkpt>
      <trkpt lat="44.11898" lon="5.30838">
        <ele>953</ele>
        <time>2026-07-10T19:44:49.000Z</time>
      </trkpt>
      <trkpt lat="44.11875" lon="5.30822">
        <ele>951</ele>
        <time>2026-07-10T19:45:19.000Z</time>
      </trkpt>
      <trkpt lat="44.11862" lon="5.30819">
        <ele>950</ele>
        <time>2026-07-10T19:45:34.000Z</time>
      </trkpt>
      <trkpt lat="44.11846" lon="5.30821">
        <ele>950</ele>
        <time>2026-07-10T19:45:52.000Z</time>
      </trkpt>
      <trkpt lat="44.11842" lon="5.30815">
        <ele>950</ele>
        <time>2026-07-10T19:45:59.000Z</time>
      </trkpt>
      <trkpt lat="44.11824" lon="5.30808">
        <ele>950</ele>
        <time>2026-07-10T19:46:20.000Z</time>
      </trkpt>
      <trkpt lat="44.11815" lon="5.30796">
        <ele>947</ele>
        <time>2026-07-10T19:46:35.000Z</time>
      </trkpt>
      <trkpt lat="44.11764" lon="5.30668">
        <ele>942</ele>
        <time>2026-07-10T19:48:35.000Z</time>
      </trkpt>
      <trkpt lat="44.11755" lon="5.30599">
        <ele>937</ele>
        <time>2026-07-10T19:49:32.000Z</time>
      </trkpt>
      <trkpt lat="44.11759" lon="5.3049">
        <ele>933</ele>
        <time>2026-07-10T19:51:02.000Z</time>
      </trkpt>
      <trkpt lat="44.11782" lon="5.30424">
        <ele>929</ele>
        <time>2026-07-10T19:52:02.000Z</time>
      </trkpt>
      <trkpt lat="44.11792" lon="5.30381">
        <ele>927</ele>
        <time>2026-07-10T19:52:40.000Z</time>
      </trkpt>
      <trkpt lat="44.11798" lon="5.30349">
        <ele>927</ele>
        <time>2026-07-10T19:53:06.000Z</time>
      </trkpt>
      <trkpt lat="44.11799" lon="5.30314">
        <ele>925</ele>
        <time>2026-07-10T19:53:35.000Z</time>
      </trkpt>
      <trkpt lat="44.11763" lon="5.30135">
        <ele>916</ele>
        <time>2026-07-10T19:56:07.000Z</time>
      </trkpt>
      <trkpt lat="44.11748" lon="5.30099">
        <ele>914</ele>
        <time>2026-07-10T19:56:42.000Z</time>
      </trkpt>
      <trkpt lat="44.11739" lon="5.30054">
        <ele>912</ele>
        <time>2026-07-10T19:57:21.000Z</time>
      </trkpt>
      <trkpt lat="44.11725" lon="5.30008">
        <ele>910</ele>
        <time>2026-07-10T19:58:02.000Z</time>
      </trkpt>
      <trkpt lat="44.11694" lon="5.29919">
        <ele>906</ele>
        <time>2026-07-10T19:59:23.000Z</time>
      </trkpt>
      <trkpt lat="44.11636" lon="5.29732">
        <ele>896</ele>
        <time>2026-07-10T20:02:10.000Z</time>
      </trkpt>
      <trkpt lat="44.11636" lon="5.29732">
        <ele>896</ele>
        <time>2026-07-10T20:02:10.000Z</time>
      </trkpt>
      <trkpt lat="44.11636" lon="5.29732">
        <ele>896</ele>
        <time>2026-07-10T20:02:10.000Z</time>
      </trkpt>
      <trkpt lat="44.11608" lon="5.29744">
        <ele>902</ele>
        <time>2026-07-10T20:03:45.000Z</time>
      </trkpt>
      <trkpt lat="44.11589" lon="5.29742">
        <ele>908</ele>
        <time>2026-07-10T20:05:09.000Z</time>
      </trkpt>
      <trkpt lat="44.11575" lon="5.29734">
        <ele>912</ele>
        <time>2026-07-10T20:06:07.000Z</time>
      </trkpt>
      <trkpt lat="44.11542" lon="5.29701">
        <ele>922</ele>
        <time>2026-07-10T20:08:37.000Z</time>
      </trkpt>
      <trkpt lat="44.11512" lon="5.29696">
        <ele>937</ele>
        <time>2026-07-10T20:11:46.000Z</time>
      </trkpt>
      <trkpt lat="44.11511" lon="5.29708">
        <ele>941</ele>
        <time>2026-07-10T20:12:37.000Z</time>
      </trkpt>
      <trkpt lat="44.11513" lon="5.29722">
        <ele>945</ele>
        <time>2026-07-10T20:13:30.000Z</time>
      </trkpt>
      <trkpt lat="44.1152" lon="5.29733">
        <ele>947</ele>
        <time>2026-07-10T20:14:02.000Z</time>
      </trkpt>
      <trkpt lat="44.11522" lon="5.29761">
        <ele>952</ele>
        <time>2026-07-10T20:15:17.000Z</time>
      </trkpt>
      <trkpt lat="44.11529" lon="5.29776">
        <ele>947</ele>
        <time>2026-07-10T20:15:32.000Z</time>
      </trkpt>
      <trkpt lat="44.11531" lon="5.29796">
        <ele>959</ele>
        <time>2026-07-10T20:17:52.000Z</time>
      </trkpt>
      <trkpt lat="44.11536" lon="5.29806">
        <ele>961</ele>
        <time>2026-07-10T20:18:22.000Z</time>
      </trkpt>
      <trkpt lat="44.11527" lon="5.29826">
        <ele>965</ele>
        <time>2026-07-10T20:19:22.000Z</time>
      </trkpt>
      <trkpt lat="44.1154" lon="5.29852">
        <ele>969</ele>
        <time>2026-07-10T20:20:29.000Z</time>
      </trkpt>
      <trkpt lat="44.11547" lon="5.29856">
        <ele>968</ele>
        <time>2026-07-10T20:20:37.000Z</time>
      </trkpt>
      <trkpt lat="44.11549" lon="5.29867">
        <ele>970</ele>
        <time>2026-07-10T20:21:07.000Z</time>
      </trkpt>
      <trkpt lat="44.11552" lon="5.29873">
        <ele>972</ele>
        <time>2026-07-10T20:21:34.000Z</time>
      </trkpt>
      <trkpt lat="44.11553" lon="5.29894">
        <ele>977</ele>
        <time>2026-07-10T20:22:43.000Z</time>
      </trkpt>
      <trkpt lat="44.11566" lon="5.29919">
        <ele>974</ele>
        <time>2026-07-10T20:23:08.000Z</time>
      </trkpt>
      <trkpt lat="44.11566" lon="5.29926">
        <ele>976</ele>
        <time>2026-07-10T20:23:35.000Z</time>
      </trkpt>
      <trkpt lat="44.11561" lon="5.2993">
        <ele>983</ele>
        <time>2026-07-10T20:24:53.000Z</time>
      </trkpt>
      <trkpt lat="44.11565" lon="5.29953">
        <ele>984</ele>
        <time>2026-07-10T20:25:23.000Z</time>
      </trkpt>
      <trkpt lat="44.11571" lon="5.29968">
        <ele>987</ele>
        <time>2026-07-10T20:26:08.000Z</time>
      </trkpt>
      <trkpt lat="44.11571" lon="5.29992">
        <ele>994</ele>
        <time>2026-07-10T20:27:39.000Z</time>
      </trkpt>
      <trkpt lat="44.11566" lon="5.30031">
        <ele>1001</ele>
        <time>2026-07-10T20:29:24.000Z</time>
      </trkpt>
      <trkpt lat="44.11569" lon="5.30042">
        <ele>1002</ele>
        <time>2026-07-10T20:29:44.000Z</time>
      </trkpt>
      <trkpt lat="44.11567" lon="5.30049">
        <ele>998</ele>
        <time>2026-07-10T20:29:50.000Z</time>
      </trkpt>
      <trkpt lat="44.11571" lon="5.30082">
        <ele>999</ele>
        <time>2026-07-10T20:30:27.000Z</time>
      </trkpt>
      <trkpt lat="44.11567" lon="5.30089">
        <ele>1004</ele>
        <time>2026-07-10T20:31:26.000Z</time>
      </trkpt>
      <trkpt lat="44.11569" lon="5.30103">
        <ele>1004</ele>
        <time>2026-07-10T20:31:37.000Z</time>
      </trkpt>
      <trkpt lat="44.11567" lon="5.30121">
        <ele>1012</ele>
        <time>2026-07-10T20:33:15.000Z</time>
      </trkpt>
      <trkpt lat="44.11571" lon="5.3014">
        <ele>1013</ele>
        <time>2026-07-10T20:33:42.000Z</time>
      </trkpt>
      <trkpt lat="44.11579" lon="5.30148">
        <ele>1011</ele>
        <time>2026-07-10T20:33:52.000Z</time>
      </trkpt>
      <trkpt lat="44.1158" lon="5.30156">
        <ele>1013</ele>
        <time>2026-07-10T20:34:19.000Z</time>
      </trkpt>
      <trkpt lat="44.11569" lon="5.30201">
        <ele>1021</ele>
        <time>2026-07-10T20:36:20.000Z</time>
      </trkpt>
      <trkpt lat="44.11568" lon="5.30222">
        <ele>1024</ele>
        <time>2026-07-10T20:37:08.000Z</time>
      </trkpt>
      <trkpt lat="44.11584" lon="5.30266">
        <ele>1024</ele>
        <time>2026-07-10T20:37:49.000Z</time>
      </trkpt>
      <trkpt lat="44.11584" lon="5.30274">
        <ele>1026</ele>
        <time>2026-07-10T20:38:16.000Z</time>
      </trkpt>
      <trkpt lat="44.11584" lon="5.30274">
        <ele>1026</ele>
        <time>2026-07-10T20:38:16.000Z</time>
      </trkpt>
      <trkpt lat="44.11587" lon="5.30293">
        <ele>1028</ele>
        <time>2026-07-10T20:38:52.000Z</time>
      </trkpt>
      <trkpt lat="44.11585" lon="5.30303">
        <ele>1029</ele>
        <time>2026-07-10T20:39:11.000Z</time>
      </trkpt>
      <trkpt lat="44.11596" lon="5.30326">
        <ele>1030</ele>
        <time>2026-07-10T20:39:44.000Z</time>
      </trkpt>
      <trkpt lat="44.11596" lon="5.30339">
        <ele>1031</ele>
        <time>2026-07-10T20:40:05.000Z</time>
      </trkpt>
      <trkpt lat="44.11601" lon="5.30361">
        <ele>1031</ele>
        <time>2026-07-10T20:40:24.000Z</time>
      </trkpt>
      <trkpt lat="44.11596" lon="5.30385">
        <ele>1034</ele>
        <time>2026-07-10T20:41:15.000Z</time>
      </trkpt>
      <trkpt lat="44.11598" lon="5.30406">
        <ele>1034</ele>
        <time>2026-07-10T20:41:32.000Z</time>
      </trkpt>
      <trkpt lat="44.11587" lon="5.30454">
        <ele>1039</ele>
        <time>2026-07-10T20:43:05.000Z</time>
      </trkpt>
      <trkpt lat="44.11585" lon="5.30494">
        <ele>1040</ele>
        <time>2026-07-10T20:43:49.000Z</time>
      </trkpt>
      <trkpt lat="44.11582" lon="5.305">
        <ele>1040</ele>
        <time>2026-07-10T20:43:55.000Z</time>
      </trkpt>
      <trkpt lat="44.11559" lon="5.30516">
        <ele>1042</ele>
        <time>2026-07-10T20:44:45.000Z</time>
      </trkpt>
      <trkpt lat="44.1155" lon="5.30518">
        <ele>1043</ele>
        <time>2026-07-10T20:45:06.000Z</time>
      </trkpt>
      <trkpt lat="44.11542" lon="5.30542">
        <ele>1044</ele>
        <time>2026-07-10T20:45:38.000Z</time>
      </trkpt>
      <trkpt lat="44.11529" lon="5.30551">
        <ele>1042</ele>
        <time>2026-07-10T20:45:54.000Z</time>
      </trkpt>
      <trkpt lat="44.11449" lon="5.30574">
        <ele>1036</ele>
        <time>2026-07-10T20:47:28.000Z</time>
      </trkpt>
      <trkpt lat="44.114" lon="5.30595">
        <ele>1031</ele>
        <time>2026-07-10T20:48:27.000Z</time>
      </trkpt>
      <trkpt lat="44.11289" lon="5.30633">
        <ele>1012</ele>
        <time>2026-07-10T20:50:38.000Z</time>
      </trkpt>
      <trkpt lat="44.11289" lon="5.30633">
        <ele>1012</ele>
        <time>2026-07-10T20:50:38.000Z</time>
      </trkpt>
      <trkpt lat="44.11281" lon="5.30637">
        <ele>1010</ele>
        <time>2026-07-10T20:50:47.000Z</time>
      </trkpt>
      <trkpt lat="44.1127" lon="5.30632">
        <ele>1009</ele>
        <time>2026-07-10T20:51:01.000Z</time>
      </trkpt>
      <trkpt lat="44.11192" lon="5.30559">
        <ele>1001</ele>
        <time>2026-07-10T20:52:49.000Z</time>
      </trkpt>
      <trkpt lat="44.11131" lon="5.30531">
        <ele>990</ele>
        <time>2026-07-10T20:54:02.000Z</time>
      </trkpt>
      <trkpt lat="44.11101" lon="5.30525">
        <ele>985</ele>
        <time>2026-07-10T20:54:38.000Z</time>
      </trkpt>
      <trkpt lat="44.11101" lon="5.30525">
        <ele>985</ele>
        <time>2026-07-10T20:54:38.000Z</time>
      </trkpt>
      <trkpt lat="44.11033" lon="5.30519">
        <ele>975</ele>
        <time>2026-07-10T20:55:56.000Z</time>
      </trkpt>
      <trkpt lat="44.11004" lon="5.305">
        <ele>971</ele>
        <time>2026-07-10T20:56:33.000Z</time>
      </trkpt>
      <trkpt lat="44.10978" lon="5.30476">
        <ele>966</ele>
        <time>2026-07-10T20:57:08.000Z</time>
      </trkpt>
      <trkpt lat="44.10978" lon="5.30476">
        <ele>966</ele>
        <time>2026-07-10T20:57:08.000Z</time>
      </trkpt>
      <trkpt lat="44.10978" lon="5.30476">
        <ele>966</ele>
        <time>2026-07-10T20:57:08.000Z</time>
      </trkpt>
      <trkpt lat="44.10964" lon="5.30461">
        <ele>964</ele>
        <time>2026-07-10T20:57:28.000Z</time>
      </trkpt>
      <trkpt lat="44.10941" lon="5.30414">
        <ele>959</ele>
        <time>2026-07-10T20:58:15.000Z</time>
      </trkpt>
      <trkpt lat="44.1091" lon="5.30328">
        <ele>950</ele>
        <time>2026-07-10T20:59:34.000Z</time>
      </trkpt>
      <trkpt lat="44.10907" lon="5.30308">
        <ele>948</ele>
        <time>2026-07-10T20:59:51.000Z</time>
      </trkpt>
      <trkpt lat="44.10907" lon="5.30308">
        <ele>948</ele>
        <time>2026-07-10T20:59:51.000Z</time>
      </trkpt>
      <trkpt lat="44.10919" lon="5.30222">
        <ele>942</ele>
        <time>2026-07-10T21:01:03.000Z</time>
      </trkpt>
      <trkpt lat="44.10918" lon="5.3021">
        <ele>940</ele>
        <time>2026-07-10T21:01:13.000Z</time>
      </trkpt>
      <trkpt lat="44.10918" lon="5.3021">
        <ele>940</ele>
        <time>2026-07-10T21:01:13.000Z</time>
      </trkpt>
      <trkpt lat="44.10909" lon="5.30198">
        <ele>939</ele>
        <time>2026-07-10T21:01:28.000Z</time>
      </trkpt>
      <trkpt lat="44.10868" lon="5.30189">
        <ele>935</ele>
        <time>2026-07-10T21:02:15.000Z</time>
      </trkpt>
      <trkpt lat="44.10851" lon="5.3018">
        <ele>934</ele>
        <time>2026-07-10T21:02:36.000Z</time>
      </trkpt>
      <trkpt lat="44.10817" lon="5.30152">
        <ele>932</ele>
        <time>2026-07-10T21:03:22.000Z</time>
      </trkpt>
      <trkpt lat="44.10793" lon="5.30107">
        <ele>929</ele>
        <time>2026-07-10T21:04:08.000Z</time>
      </trkpt>
      <trkpt lat="44.10779" lon="5.30064">
        <ele>925</ele>
        <time>2026-07-10T21:04:46.000Z</time>
      </trkpt>
      <trkpt lat="44.1073" lon="5.30006">
        <ele>920</ele>
        <time>2026-07-10T21:06:00.000Z</time>
      </trkpt>
      <trkpt lat="44.10662" lon="5.29894">
        <ele>910</ele>
        <time>2026-07-10T21:08:01.000Z</time>
      </trkpt>
      <trkpt lat="44.1064" lon="5.29852">
        <ele>908</ele>
        <time>2026-07-10T21:08:44.000Z</time>
      </trkpt>
      <trkpt lat="44.10623" lon="5.29813">
        <ele>905</ele>
        <time>2026-07-10T21:09:21.000Z</time>
      </trkpt>
      <trkpt lat="44.10595" lon="5.29713">
        <ele>898</ele>
        <time>2026-07-10T21:10:50.000Z</time>
      </trkpt>
      <trkpt lat="44.10595" lon="5.29713">
        <ele>897</ele>
        <time>2026-07-10T21:10:50.000Z</time>
      </trkpt>
      <trkpt lat="44.10552" lon="5.2951">
        <ele>884</ele>
        <time>2026-07-10T21:13:43.000Z</time>
      </trkpt>
      <trkpt lat="44.10539" lon="5.29245">
        <ele>870</ele>
        <time>2026-07-10T21:17:22.000Z</time>
      </trkpt>
      <trkpt lat="44.10539" lon="5.29245">
        <ele>870</ele>
        <time>2026-07-10T21:17:22.000Z</time>
      </trkpt>
      <trkpt lat="44.10543" lon="5.29175">
        <ele>867</ele>
        <time>2026-07-10T21:18:20.000Z</time>
      </trkpt>
      <trkpt lat="44.10589" lon="5.29003">
        <ele>861</ele>
        <time>2026-07-10T21:20:51.000Z</time>
      </trkpt>
      <trkpt lat="44.10597" lon="5.2894">
        <ele>857</ele>
        <time>2026-07-10T21:21:43.000Z</time>
      </trkpt>
      <trkpt lat="44.10593" lon="5.28904">
        <ele>854</ele>
        <time>2026-07-10T21:22:13.000Z</time>
      </trkpt>
      <trkpt lat="44.10484" lon="5.28682">
        <ele>835</ele>
        <time>2026-07-10T21:25:54.000Z</time>
      </trkpt>
      <trkpt lat="44.10434" lon="5.28597">
        <ele>828</ele>
        <time>2026-07-10T21:27:25.000Z</time>
      </trkpt>
      <trkpt lat="44.10372" lon="5.28502">
        <ele>817</ele>
        <time>2026-07-10T21:29:10.000Z</time>
      </trkpt>
      <trkpt lat="44.10348" lon="5.28458">
        <ele>815</ele>
        <time>2026-07-10T21:29:56.000Z</time>
      </trkpt>
      <trkpt lat="44.10314" lon="5.28364">
        <ele>805</ele>
        <time>2026-07-10T21:31:23.000Z</time>
      </trkpt>
      <trkpt lat="44.103" lon="5.2831">
        <ele>801</ele>
        <time>2026-07-10T21:32:11.000Z</time>
      </trkpt>
      <trkpt lat="44.10285" lon="5.2823">
        <ele>794</ele>
        <time>2026-07-10T21:33:18.000Z</time>
      </trkpt>
      <trkpt lat="44.10285" lon="5.2823">
        <ele>794</ele>
        <time>2026-07-10T21:33:18.000Z</time>
      </trkpt>
      <trkpt lat="44.10251" lon="5.28163">
        <ele>788</ele>
        <time>2026-07-10T21:34:26.000Z</time>
      </trkpt>
      <trkpt lat="44.10229" lon="5.28127">
        <ele>785</ele>
        <time>2026-07-10T21:35:05.000Z</time>
      </trkpt>
      <trkpt lat="44.10117" lon="5.27985">
        <ele>772</ele>
        <time>2026-07-10T21:37:58.000Z</time>
      </trkpt>
      <trkpt lat="44.10081" lon="5.27946">
        <ele>767</ele>
        <time>2026-07-10T21:38:50.000Z</time>
      </trkpt>
      <trkpt lat="44.10081" lon="5.27932">
        <ele>766</ele>
        <time>2026-07-10T21:39:02.000Z</time>
      </trkpt>
      <trkpt lat="44.10118" lon="5.27866">
        <ele>764</ele>
        <time>2026-07-10T21:40:11.000Z</time>
      </trkpt>
      <trkpt lat="44.10143" lon="5.27762">
        <ele>761</ele>
        <time>2026-07-10T21:41:41.000Z</time>
      </trkpt>
      <trkpt lat="44.10143" lon="5.27762">
        <ele>761</ele>
        <time>2026-07-10T21:41:41.000Z</time>
      </trkpt>
      <trkpt lat="44.10166" lon="5.27755">
        <ele>759</ele>
        <time>2026-07-10T21:42:07.000Z</time>
      </trkpt>
      <trkpt lat="44.10241" lon="5.27598">
        <ele>747</ele>
        <time>2026-07-10T21:44:42.000Z</time>
      </trkpt>
      <trkpt lat="44.10256" lon="5.27579">
        <ele>743</ele>
        <time>2026-07-10T21:45:05.000Z</time>
      </trkpt>
      <trkpt lat="44.1029" lon="5.27553">
        <ele>740</ele>
        <time>2026-07-10T21:45:50.000Z</time>
      </trkpt>
      <trkpt lat="44.103" lon="5.27535">
        <ele>736</ele>
        <time>2026-07-10T21:46:08.000Z</time>
      </trkpt>
      <trkpt lat="44.10307" lon="5.27515">
        <ele>735</ele>
        <time>2026-07-10T21:46:27.000Z</time>
      </trkpt>
      <trkpt lat="44.10306" lon="5.27387">
        <ele>727</ele>
        <time>2026-07-10T21:48:12.000Z</time>
      </trkpt>
      <trkpt lat="44.10317" lon="5.27343">
        <ele>723</ele>
        <time>2026-07-10T21:48:50.000Z</time>
      </trkpt>
      <trkpt lat="44.10331" lon="5.273">
        <ele>719</ele>
        <time>2026-07-10T21:49:29.000Z</time>
      </trkpt>
      <trkpt lat="44.10345" lon="5.27274">
        <ele>718</ele>
        <time>2026-07-10T21:49:56.000Z</time>
      </trkpt>
      <trkpt lat="44.10375" lon="5.27255">
        <ele>719</ele>
        <time>2026-07-10T21:50:44.000Z</time>
      </trkpt>
      <trkpt lat="44.10429" lon="5.27193">
        <ele>718</ele>
        <time>2026-07-10T21:52:04.000Z</time>
      </trkpt>
      <trkpt lat="44.10446" lon="5.27179">
        <ele>716</ele>
        <time>2026-07-10T21:52:27.000Z</time>
      </trkpt>
      <trkpt lat="44.10475" lon="5.27171">
        <ele>716</ele>
        <time>2026-07-10T21:53:02.000Z</time>
      </trkpt>
      <trkpt lat="44.105" lon="5.2717">
        <ele>715</ele>
        <time>2026-07-10T21:53:30.000Z</time>
      </trkpt>
      <trkpt lat="44.10508" lon="5.27164">
        <ele>716</ele>
        <time>2026-07-10T21:53:50.000Z</time>
      </trkpt>
      <trkpt lat="44.1051" lon="5.27122">
        <ele>716</ele>
        <time>2026-07-10T21:54:25.000Z</time>
      </trkpt>
      <trkpt lat="44.10515" lon="5.27102">
        <ele>717</ele>
        <time>2026-07-10T21:54:52.000Z</time>
      </trkpt>
      <trkpt lat="44.10531" lon="5.27077">
        <ele>717</ele>
        <time>2026-07-10T21:55:20.000Z</time>
      </trkpt>
      <trkpt lat="44.10566" lon="5.27039">
        <ele>719</ele>
        <time>2026-07-10T21:56:31.000Z</time>
      </trkpt>
      <trkpt lat="44.10591" lon="5.27018">
        <ele>718</ele>
        <time>2026-07-10T21:57:04.000Z</time>
      </trkpt>
      <trkpt lat="44.10642" lon="5.27003">
        <ele>717</ele>
        <time>2026-07-10T21:58:04.000Z</time>
      </trkpt>
      <trkpt lat="44.1067" lon="5.26991">
        <ele>714</ele>
        <time>2026-07-10T21:58:37.000Z</time>
      </trkpt>
      <trkpt lat="44.10689" lon="5.26974">
        <ele>711</ele>
        <time>2026-07-10T21:59:03.000Z</time>
      </trkpt>
      <trkpt lat="44.10693" lon="5.26964">
        <ele>710</ele>
        <time>2026-07-10T21:59:13.000Z</time>
      </trkpt>
      <trkpt lat="44.10693" lon="5.26964">
        <ele>710</ele>
        <time>2026-07-10T21:59:13.000Z</time>
      </trkpt>
      <trkpt lat="44.10693" lon="5.26964">
        <ele>710</ele>
        <time>2026-07-10T21:59:13.000Z</time>
      </trkpt>
      <trkpt lat="44.10694" lon="5.26961">
        <ele>710</ele>
        <time>2026-07-10T21:59:16.000Z</time>
      </trkpt>
      <trkpt lat="44.10689" lon="5.26953">
        <ele>708</ele>
        <time>2026-07-10T21:59:24.000Z</time>
      </trkpt>
      <trkpt lat="44.10626" lon="5.26913">
        <ele>698</ele>
        <time>2026-07-10T22:00:43.000Z</time>
      </trkpt>
      <trkpt lat="44.106" lon="5.26884">
        <ele>693</ele>
        <time>2026-07-10T22:01:21.000Z</time>
      </trkpt>
      <trkpt lat="44.10548" lon="5.26827">
        <ele>673</ele>
        <time>2026-07-10T22:02:37.000Z</time>
      </trkpt>
      <trkpt lat="44.10521" lon="5.26753">
        <ele>664</ele>
        <time>2026-07-10T22:03:45.000Z</time>
      </trkpt>
      <trkpt lat="44.10514" lon="5.2668">
        <ele>660</ele>
        <time>2026-07-10T22:04:46.000Z</time>
      </trkpt>
      <trkpt lat="44.10509" lon="5.26656">
        <ele>658</ele>
        <time>2026-07-10T22:05:07.000Z</time>
      </trkpt>
      <trkpt lat="44.10491" lon="5.2662">
        <ele>653</ele>
        <time>2026-07-10T22:05:43.000Z</time>
      </trkpt>
      <trkpt lat="44.10464" lon="5.26574">
        <ele>649</ele>
        <time>2026-07-10T22:06:32.000Z</time>
      </trkpt>
      <trkpt lat="44.10446" lon="5.26532">
        <ele>643</ele>
        <time>2026-07-10T22:07:12.000Z</time>
      </trkpt>
      <trkpt lat="44.10417" lon="5.26495">
        <ele>641</ele>
        <time>2026-07-10T22:07:57.000Z</time>
      </trkpt>
      <trkpt lat="44.10392" lon="5.26436">
        <ele>636</ele>
        <time>2026-07-10T22:08:54.000Z</time>
      </trkpt>
      <trkpt lat="44.10376" lon="5.26412">
        <ele>635</ele>
        <time>2026-07-10T22:09:21.000Z</time>
      </trkpt>
      <trkpt lat="44.10364" lon="5.26377">
        <ele>634</ele>
        <time>2026-07-10T22:09:52.000Z</time>
      </trkpt>
      <trkpt lat="44.10358" lon="5.26331">
        <ele>626</ele>
        <time>2026-07-10T22:10:31.000Z</time>
      </trkpt>
      <trkpt lat="44.10358" lon="5.26205">
        <ele>619</ele>
        <time>2026-07-10T22:12:15.000Z</time>
      </trkpt>
      <trkpt lat="44.10356" lon="5.26154">
        <ele>616</ele>
        <time>2026-07-10T22:12:57.000Z</time>
      </trkpt>
      <trkpt lat="44.10353" lon="5.26142">
        <ele>615</ele>
        <time>2026-07-10T22:13:08.000Z</time>
      </trkpt>
      <trkpt lat="44.10353" lon="5.26142">
        <ele>615</ele>
        <time>2026-07-10T22:13:08.000Z</time>
      </trkpt>
      <trkpt lat="44.10337" lon="5.26097">
        <ele>612</ele>
        <time>2026-07-10T22:13:49.000Z</time>
      </trkpt>
      <trkpt lat="44.10325" lon="5.26083">
        <ele>611</ele>
        <time>2026-07-10T22:14:07.000Z</time>
      </trkpt>
      <trkpt lat="44.1031" lon="5.26074">
        <ele>609</ele>
        <time>2026-07-10T22:14:26.000Z</time>
      </trkpt>
      <trkpt lat="44.10296" lon="5.26075">
        <ele>608</ele>
        <time>2026-07-10T22:14:42.000Z</time>
      </trkpt>
      <trkpt lat="44.10273" lon="5.26097">
        <ele>605</ele>
        <time>2026-07-10T22:15:14.000Z</time>
      </trkpt>
      <trkpt lat="44.10253" lon="5.2611">
        <ele>603</ele>
        <time>2026-07-10T22:15:39.000Z</time>
      </trkpt>
      <trkpt lat="44.10231" lon="5.26105">
        <ele>601</ele>
        <time>2026-07-10T22:16:05.000Z</time>
      </trkpt>
      <trkpt lat="44.10209" lon="5.26095">
        <ele>600</ele>
        <time>2026-07-10T22:16:32.000Z</time>
      </trkpt>
      <trkpt lat="44.10179" lon="5.26069">
        <ele>596</ele>
        <time>2026-07-10T22:17:13.000Z</time>
      </trkpt>
      <trkpt lat="44.10125" lon="5.26045">
        <ele>591</ele>
        <time>2026-07-10T22:18:18.000Z</time>
      </trkpt>
      <trkpt lat="44.10085" lon="5.26037">
        <ele>587</ele>
        <time>2026-07-10T22:19:04.000Z</time>
      </trkpt>
      <trkpt lat="44.10006" lon="5.26046">
        <ele>580</ele>
        <time>2026-07-10T22:20:35.000Z</time>
      </trkpt>
      <trkpt lat="44.09981" lon="5.26038">
        <ele>578</ele>
        <time>2026-07-10T22:21:04.000Z</time>
      </trkpt>
      <trkpt lat="44.09932" lon="5.26014">
        <ele>573</ele>
        <time>2026-07-10T22:22:03.000Z</time>
      </trkpt>
      <trkpt lat="44.09887" lon="5.25973">
        <ele>568</ele>
        <time>2026-07-10T22:23:05.000Z</time>
      </trkpt>
      <trkpt lat="44.09836" lon="5.25964">
        <ele>563</ele>
        <time>2026-07-10T22:24:03.000Z</time>
      </trkpt>
      <trkpt lat="44.09794" lon="5.25939">
        <ele>559</ele>
        <time>2026-07-10T22:24:55.000Z</time>
      </trkpt>
      <trkpt lat="44.09776" lon="5.25933">
        <ele>557</ele>
        <time>2026-07-10T22:25:16.000Z</time>
      </trkpt>
      <trkpt lat="44.09728" lon="5.25937">
        <ele>553</ele>
        <time>2026-07-10T22:26:11.000Z</time>
      </trkpt>
      <trkpt lat="44.09697" lon="5.25921">
        <ele>551</ele>
        <time>2026-07-10T22:26:49.000Z</time>
      </trkpt>
      <trkpt lat="44.09655" lon="5.25901">
        <ele>545</ele>
        <time>2026-07-10T22:27:39.000Z</time>
      </trkpt>
      <trkpt lat="44.09601" lon="5.25881">
        <ele>541</ele>
        <time>2026-07-10T22:28:43.000Z</time>
      </trkpt>
      <trkpt lat="44.09556" lon="5.25852">
        <ele>536</ele>
        <time>2026-07-10T22:29:40.000Z</time>
      </trkpt>
      <trkpt lat="44.09538" lon="5.25846">
        <ele>535</ele>
        <time>2026-07-10T22:30:02.000Z</time>
      </trkpt>
      <trkpt lat="44.09504" lon="5.25841">
        <ele>531</ele>
        <time>2026-07-10T22:30:41.000Z</time>
      </trkpt>
      <trkpt lat="44.09403" lon="5.25801">
        <ele>522</ele>
        <time>2026-07-10T22:32:41.000Z</time>
      </trkpt>
      <trkpt lat="44.09369" lon="5.25778">
        <ele>519</ele>
        <time>2026-07-10T22:33:24.000Z</time>
      </trkpt>
      <trkpt lat="44.09369" lon="5.25778">
        <ele>519</ele>
        <time>2026-07-10T22:33:24.000Z</time>
      </trkpt>
      <trkpt lat="44.09345" lon="5.25747">
        <ele>515</ele>
        <time>2026-07-10T22:34:02.000Z</time>
      </trkpt>
      <trkpt lat="44.09336" lon="5.25725">
        <ele>515</ele>
        <time>2026-07-10T22:34:23.000Z</time>
      </trkpt>
      <trkpt lat="44.09327" lon="5.25655">
        <ele>513</ele>
        <time>2026-07-10T22:35:21.000Z</time>
      </trkpt>
      <trkpt lat="44.09324" lon="5.2552">
        <ele>501</ele>
        <time>2026-07-10T22:37:12.000Z</time>
      </trkpt>
      <trkpt lat="44.09344" lon="5.25444">
        <ele>495</ele>
        <time>2026-07-10T22:38:18.000Z</time>
      </trkpt>
      <trkpt lat="44.09356" lon="5.2538">
        <ele>490</ele>
        <time>2026-07-10T22:39:13.000Z</time>
      </trkpt>
      <trkpt lat="44.09356" lon="5.25306">
        <ele>488</ele>
        <time>2026-07-10T22:40:13.000Z</time>
      </trkpt>
      <trkpt lat="44.09342" lon="5.25209">
        <ele>483</ele>
        <time>2026-07-10T22:41:34.000Z</time>
      </trkpt>
      <trkpt lat="44.09319" lon="5.25139">
        <ele>477</ele>
        <time>2026-07-10T22:42:38.000Z</time>
      </trkpt>
      <trkpt lat="44.09316" lon="5.25093">
        <ele>475</ele>
        <time>2026-07-10T22:43:16.000Z</time>
      </trkpt>
      <trkpt lat="44.09317" lon="5.25066">
        <ele>471</ele>
        <time>2026-07-10T22:43:38.000Z</time>
      </trkpt>
      <trkpt lat="44.09324" lon="5.25033">
        <ele>470</ele>
        <time>2026-07-10T22:44:07.000Z</time>
      </trkpt>
      <trkpt lat="44.09343" lon="5.24973">
        <ele>465</ele>
        <time>2026-07-10T22:45:01.000Z</time>
      </trkpt>
      <trkpt lat="44.09347" lon="5.24947">
        <ele>464</ele>
        <time>2026-07-10T22:45:23.000Z</time>
      </trkpt>
      <trkpt lat="44.09347" lon="5.24894">
        <ele>461</ele>
        <time>2026-07-10T22:46:07.000Z</time>
      </trkpt>
      <trkpt lat="44.0933" lon="5.24813">
        <ele>457</ele>
        <time>2026-07-10T22:47:17.000Z</time>
      </trkpt>
      <trkpt lat="44.09328" lon="5.24764">
        <ele>455</ele>
        <time>2026-07-10T22:47:57.000Z</time>
      </trkpt>
      <trkpt lat="44.09331" lon="5.24739">
        <ele>451</ele>
        <time>2026-07-10T22:48:18.000Z</time>
      </trkpt>
      <trkpt lat="44.0935" lon="5.24686">
        <ele>448</ele>
        <time>2026-07-10T22:49:07.000Z</time>
      </trkpt>
      <trkpt lat="44.0935" lon="5.24622">
        <ele>443</ele>
        <time>2026-07-10T22:50:00.000Z</time>
      </trkpt>
      <trkpt lat="44.09354" lon="5.2455">
        <ele>440</ele>
        <time>2026-07-10T22:50:59.000Z</time>
      </trkpt>
      <trkpt lat="44.09342" lon="5.24502">
        <ele>436</ele>
        <time>2026-07-10T22:51:41.000Z</time>
      </trkpt>
      <trkpt lat="44.09329" lon="5.24463">
        <ele>434</ele>
        <time>2026-07-10T22:52:16.000Z</time>
      </trkpt>
      <trkpt lat="44.09326" lon="5.24439">
        <ele>433</ele>
        <time>2026-07-10T22:52:36.000Z</time>
      </trkpt>
      <trkpt lat="44.09328" lon="5.24416">
        <ele>431</ele>
        <time>2026-07-10T22:52:55.000Z</time>
      </trkpt>
      <trkpt lat="44.09352" lon="5.24341">
        <ele>426</ele>
        <time>2026-07-10T22:54:02.000Z</time>
      </trkpt>
      <trkpt lat="44.09355" lon="5.24322">
        <ele>426</ele>
        <time>2026-07-10T22:54:18.000Z</time>
      </trkpt>
      <trkpt lat="44.09574" lon="5.24299">
        <ele>424</ele>
        <time>2026-07-10T22:58:30.000Z</time>
      </trkpt>
      <trkpt lat="44.09596" lon="5.24293">
        <ele>426</ele>
        <time>2026-07-10T22:59:16.000Z</time>
      </trkpt>
      <trkpt lat="44.09654" lon="5.24262">
        <ele>427</ele>
        <time>2026-07-10T23:00:38.000Z</time>
      </trkpt>
      <trkpt lat="44.09672" lon="5.24259">
        <ele>428</ele>
        <time>2026-07-10T23:01:09.000Z</time>
      </trkpt>
      <trkpt lat="44.09748" lon="5.2426">
        <ele>434</ele>
        <time>2026-07-10T23:03:37.000Z</time>
      </trkpt>
      <trkpt lat="44.09753" lon="5.2425">
        <ele>434</ele>
        <time>2026-07-10T23:03:47.000Z</time>
      </trkpt>
      <trkpt lat="44.09827" lon="5.24187">
        <ele>434</ele>
        <time>2026-07-10T23:05:26.000Z</time>
      </trkpt>
      <trkpt lat="44.0983" lon="5.24176">
        <ele>434</ele>
        <time>2026-07-10T23:05:36.000Z</time>
      </trkpt>
      <trkpt lat="44.09839" lon="5.24177">
        <ele>435</ele>
        <time>2026-07-10T23:05:56.000Z</time>
      </trkpt>
      <trkpt lat="44.09857" lon="5.24166">
        <ele>435</ele>
        <time>2026-07-10T23:06:18.000Z</time>
      </trkpt>
      <trkpt lat="44.09877" lon="5.24163">
        <ele>436</ele>
        <time>2026-07-10T23:06:52.000Z</time>
      </trkpt>
      <trkpt lat="44.09961" lon="5.24186">
        <ele>440</ele>
        <time>2026-07-10T23:09:11.000Z</time>
      </trkpt>
    </trkseg>
  </trk>
</gpx>